sensor_id;sensor_type;location;lat;lon;timestamp;P1;durP1;ratioP1;P2;durP2;ratioP2
10315;SDS011;5203;48.976;8.306;2024-01-11T00:01:03;58.42;;;31.88;;
10315;SDS011;5203;48.976;8.306;2024-01-11T00:03:29;54.70;;;28.10;;
10315;SDS011;5203;48.976;8.306;2024-01-11T00:05:55;58.38;;;28.63;;
10315;SDS011;5203;48.976;8.306;2024-01-11T00:08:21;59.17;;;28.77;;
10315;SDS011;5203;48.976;8.306;2024-01-11T00:10:46;51.05;;;29.27;;
10315;SDS011;5203;48.976;8.306;2024-01-11T00:13:12;57.75;;;30.40;;
10315;SDS011;5203;48.976;8.306;2024-01-11T00:15:40;64.22;;;28.65;;
10315;SDS011;5203;48.976;8.306;2024-01-11T00:18:06;56.53;;;27.42;;
10315;SDS011;5203;48.976;8.306;2024-01-11T00:20:32;60.85;;;29.20;;
10315;SDS011;5203;48.976;8.306;2024-01-11T00:22:58;53.90;;;25.27;;
10315;SDS011;5203;48.976;8.306;2024-01-11T00:25:23;58.80;;;27.60;;
10315;SDS011;5203;48.976;8.306;2024-01-11T00:27:49;58.08;;;28.50;;
10315;SDS011;5203;48.976;8.306;2024-01-11T00:30:15;57.13;;;28.10;;
10315;SDS011;5203;48.976;8.306;2024-01-11T00:32:41;59.90;;;28.95;;
10315;SDS011;5203;48.976;8.306;2024-01-11T00:35:07;58.92;;;29.42;;
10315;SDS011;5203;48.976;8.306;2024-01-11T00:37:32;54.78;;;30.23;;
10315;SDS011;5203;48.976;8.306;2024-01-11T00:39:58;61.85;;;28.83;;
10315;SDS011;5203;48.976;8.306;2024-01-11T00:42:24;65.00;;;31.02;;
10315;SDS011;5203;48.976;8.306;2024-01-11T00:44:49;55.70;;;27.05;;
10315;SDS011;5203;48.976;8.306;2024-01-11T00:47:15;56.72;;;29.33;;
10315;SDS011;5203;48.976;8.306;2024-01-11T00:49:42;56.00;;;27.10;;
10315;SDS011;5203;48.976;8.306;2024-01-11T00:52:07;68.45;;;29.98;;
10315;SDS011;5203;48.976;8.306;2024-01-11T00:54:34;63.10;;;27.88;;
10315;SDS011;5203;48.976;8.306;2024-01-11T00:57:00;52.30;;;27.15;;
10315;SDS011;5203;48.976;8.306;2024-01-11T00:59:26;54.08;;;28.05;;
10315;SDS011;5203;48.976;8.306;2024-01-11T01:01:52;59.35;;;27.27;;
10315;SDS011;5203;48.976;8.306;2024-01-11T01:04:18;66.93;;;31.15;;
10315;SDS011;5203;48.976;8.306;2024-01-11T01:06:43;59.33;;;30.77;;
10315;SDS011;5203;48.976;8.306;2024-01-11T01:09:28;58.45;;;27.52;;
10315;SDS011;5203;48.976;8.306;2024-01-11T01:11:53;59.60;;;30.10;;
10315;SDS011;5203;48.976;8.306;2024-01-11T01:14:19;68.95;;;31.50;;
10315;SDS011;5203;48.976;8.306;2024-01-11T01:16:45;54.45;;;30.70;;
10315;SDS011;5203;48.976;8.306;2024-01-11T01:19:10;55.30;;;30.02;;
10315;SDS011;5203;48.976;8.306;2024-01-11T01:21:36;63.40;;;28.95;;
10315;SDS011;5203;48.976;8.306;2024-01-11T01:24:02;68.03;;;30.58;;
10315;SDS011;5203;48.976;8.306;2024-01-11T01:26:28;57.72;;;31.67;;
10315;SDS011;5203;48.976;8.306;2024-01-11T01:28:54;59.17;;;28.25;;
10315;SDS011;5203;48.976;8.306;2024-01-11T01:31:19;51.88;;;27.95;;
10315;SDS011;5203;48.976;8.306;2024-01-11T01:33:46;60.13;;;28.17;;
10315;SDS011;5203;48.976;8.306;2024-01-11T01:36:11;52.90;;;26.25;;
10315;SDS011;5203;48.976;8.306;2024-01-11T01:38:37;57.35;;;26.48;;
10315;SDS011;5203;48.976;8.306;2024-01-11T01:41:03;57.65;;;30.50;;
10315;SDS011;5203;48.976;8.306;2024-01-11T01:43:28;67.22;;;29.15;;
10315;SDS011;5203;48.976;8.306;2024-01-11T01:45:54;58.97;;;30.65;;
10315;SDS011;5203;48.976;8.306;2024-01-11T01:48:20;60.53;;;30.85;;
10315;SDS011;5203;48.976;8.306;2024-01-11T01:50:47;56.55;;;26.95;;
10315;SDS011;5203;48.976;8.306;2024-01-11T01:55:42;60.88;;;26.70;;
10315;SDS011;5203;48.976;8.306;2024-01-11T01:58:08;57.00;;;27.60;;
10315;SDS011;5203;48.976;8.306;2024-01-11T02:00:33;54.10;;;30.75;;
10315;SDS011;5203;48.976;8.306;2024-01-11T02:02:59;59.85;;;29.73;;
10315;SDS011;5203;48.976;8.306;2024-01-11T02:05:25;64.38;;;30.33;;
10315;SDS011;5203;48.976;8.306;2024-01-11T02:07:51;58.78;;;28.20;;
10315;SDS011;5203;48.976;8.306;2024-01-11T02:10:17;62.35;;;29.90;;
10315;SDS011;5203;48.976;8.306;2024-01-11T02:12:44;60.97;;;30.48;;
10315;SDS011;5203;48.976;8.306;2024-01-11T02:15:10;61.20;;;29.92;;
10315;SDS011;5203;48.976;8.306;2024-01-11T02:17:36;59.75;;;27.02;;
10315;SDS011;5203;48.976;8.306;2024-01-11T02:20:04;61.30;;;30.55;;
10315;SDS011;5203;48.976;8.306;2024-01-11T02:22:38;69.72;;;31.55;;
10315;SDS011;5203;48.976;8.306;2024-01-11T02:25:05;60.25;;;27.92;;
10315;SDS011;5203;48.976;8.306;2024-01-11T02:27:43;63.63;;;28.10;;
10315;SDS011;5203;48.976;8.306;2024-01-11T02:30:16;60.63;;;28.27;;
10315;SDS011;5203;48.976;8.306;2024-01-11T02:32:43;69.00;;;30.88;;
10315;SDS011;5203;48.976;8.306;2024-01-11T02:37:37;53.30;;;26.00;;
10315;SDS011;5203;48.976;8.306;2024-01-11T02:40:04;57.45;;;24.52;;
10315;SDS011;5203;48.976;8.306;2024-01-11T02:42:32;65.55;;;29.45;;
10315;SDS011;5203;48.976;8.306;2024-01-11T02:44:58;57.75;;;28.63;;
10315;SDS011;5203;48.976;8.306;2024-01-11T02:47:24;61.58;;;27.67;;
10315;SDS011;5203;48.976;8.306;2024-01-11T02:49:50;58.15;;;26.90;;
10315;SDS011;5203;48.976;8.306;2024-01-11T02:52:19;55.65;;;28.05;;
10315;SDS011;5203;48.976;8.306;2024-01-11T02:54:45;51.90;;;28.27;;
10315;SDS011;5203;48.976;8.306;2024-01-11T02:57:10;46.42;;;25.95;;
10315;SDS011;5203;48.976;8.306;2024-01-11T02:59:36;56.28;;;29.70;;
10315;SDS011;5203;48.976;8.306;2024-01-11T03:02:02;66.90;;;30.88;;
10315;SDS011;5203;48.976;8.306;2024-01-11T03:04:27;59.08;;;28.83;;
10315;SDS011;5203;48.976;8.306;2024-01-11T03:06:53;59.13;;;26.20;;
10315;SDS011;5203;48.976;8.306;2024-01-11T03:09:19;51.45;;;29.83;;
10315;SDS011;5203;48.976;8.306;2024-01-11T03:11:44;59.63;;;32.53;;
10315;SDS011;5203;48.976;8.306;2024-01-11T03:14:10;59.38;;;29.60;;
10315;SDS011;5203;48.976;8.306;2024-01-11T03:16:36;56.88;;;29.15;;
10315;SDS011;5203;48.976;8.306;2024-01-11T03:19:02;61.08;;;29.98;;
10315;SDS011;5203;48.976;8.306;2024-01-11T03:21:28;67.43;;;32.88;;
10315;SDS011;5203;48.976;8.306;2024-01-11T03:23:53;56.83;;;29.23;;
10315;SDS011;5203;48.976;8.306;2024-01-11T03:26:19;58.08;;;29.20;;
10315;SDS011;5203;48.976;8.306;2024-01-11T03:28:45;54.67;;;28.92;;
10315;SDS011;5203;48.976;8.306;2024-01-11T03:31:10;53.30;;;26.13;;
10315;SDS011;5203;48.976;8.306;2024-01-11T03:33:36;55.50;;;30.25;;
10315;SDS011;5203;48.976;8.306;2024-01-11T03:36:11;68.88;;;31.08;;
10315;SDS011;5203;48.976;8.306;2024-01-11T03:41:09;56.55;;;26.27;;
10315;SDS011;5203;48.976;8.306;2024-01-11T03:43:36;51.63;;;28.85;;
10315;SDS011;5203;48.976;8.306;2024-01-11T03:46:04;63.38;;;30.67;;
10315;SDS011;5203;48.976;8.306;2024-01-11T03:48:30;58.95;;;28.88;;
10315;SDS011;5203;48.976;8.306;2024-01-11T03:50:59;57.70;;;27.38;;
10315;SDS011;5203;48.976;8.306;2024-01-11T03:53:25;66.40;;;29.52;;
10315;SDS011;5203;48.976;8.306;2024-01-11T03:55:50;61.75;;;28.60;;
10315;SDS011;5203;48.976;8.306;2024-01-11T03:58:16;52.40;;;29.48;;
10315;SDS011;5203;48.976;8.306;2024-01-11T04:00:42;59.03;;;29.98;;
10315;SDS011;5203;48.976;8.306;2024-01-11T04:03:13;53.88;;;28.27;;
10315;SDS011;5203;48.976;8.306;2024-01-11T04:05:42;57.30;;;29.40;;
10315;SDS011;5203;48.976;8.306;2024-01-11T04:08:11;63.08;;;30.10;;
10315;SDS011;5203;48.976;8.306;2024-01-11T04:10:38;56.22;;;27.92;;
10315;SDS011;5203;48.976;8.306;2024-01-11T04:13:06;59.78;;;28.40;;
10315;SDS011;5203;48.976;8.306;2024-01-11T04:15:32;58.10;;;27.85;;
10315;SDS011;5203;48.976;8.306;2024-01-11T04:17:58;56.20;;;29.30;;
10315;SDS011;5203;48.976;8.306;2024-01-11T04:20:29;59.95;;;27.85;;
10315;SDS011;5203;48.976;8.306;2024-01-11T04:22:55;60.80;;;28.00;;
10315;SDS011;5203;48.976;8.306;2024-01-11T04:25:20;60.42;;;27.00;;
10315;SDS011;5203;48.976;8.306;2024-01-11T04:27:53;52.47;;;25.63;;
10315;SDS011;5203;48.976;8.306;2024-01-11T04:30:19;61.05;;;29.30;;
10315;SDS011;5203;48.976;8.306;2024-01-11T04:32:44;59.45;;;31.13;;
10315;SDS011;5203;48.976;8.306;2024-01-11T04:35:14;62.70;;;30.73;;
10315;SDS011;5203;48.976;8.306;2024-01-11T04:37:42;59.08;;;27.13;;
10315;SDS011;5203;48.976;8.306;2024-01-11T04:40:08;55.80;;;29.23;;
10315;SDS011;5203;48.976;8.306;2024-01-11T04:42:34;61.05;;;28.02;;
10315;SDS011;5203;48.976;8.306;2024-01-11T04:45:00;58.42;;;28.98;;
10315;SDS011;5203;48.976;8.306;2024-01-11T04:47:26;66.65;;;28.80;;
10315;SDS011;5203;48.976;8.306;2024-01-11T04:49:51;53.03;;;28.40;;
10315;SDS011;5203;48.976;8.306;2024-01-11T04:52:17;60.17;;;30.83;;
10315;SDS011;5203;48.976;8.306;2024-01-11T04:54:43;60.35;;;27.90;;
10315;SDS011;5203;48.976;8.306;2024-01-11T04:57:08;65.15;;;31.80;;
10315;SDS011;5203;48.976;8.306;2024-01-11T04:59:34;57.72;;;28.52;;
10315;SDS011;5203;48.976;8.306;2024-01-11T05:02:00;61.35;;;31.80;;
10315;SDS011;5203;48.976;8.306;2024-01-11T05:04:25;60.63;;;29.70;;
10315;SDS011;5203;48.976;8.306;2024-01-11T05:06:51;53.50;;;28.08;;
10315;SDS011;5203;48.976;8.306;2024-01-11T05:09:17;53.65;;;26.95;;
10315;SDS011;5203;48.976;8.306;2024-01-11T05:11:43;54.20;;;29.77;;
10315;SDS011;5203;48.976;8.306;2024-01-11T05:14:09;60.65;;;30.52;;
10315;SDS011;5203;48.976;8.306;2024-01-11T05:16:35;86.07;;;41.95;;
10315;SDS011;5203;48.976;8.306;2024-01-11T05:19:03;67.90;;;34.53;;
10315;SDS011;5203;48.976;8.306;2024-01-11T05:21:31;51.15;;;29.88;;
10315;SDS011;5203;48.976;8.306;2024-01-11T05:24:00;58.92;;;32.22;;
10315;SDS011;5203;48.976;8.306;2024-01-11T05:29:32;61.35;;;31.52;;
10315;SDS011;5203;48.976;8.306;2024-01-11T05:31:58;59.67;;;33.13;;
10315;SDS011;5203;48.976;8.306;2024-01-11T05:34:27;79.20;;;38.92;;
10315;SDS011;5203;48.976;8.306;2024-01-11T05:36:55;67.68;;;30.83;;
10315;SDS011;5203;48.976;8.306;2024-01-11T05:39:21;59.63;;;28.70;;
10315;SDS011;5203;48.976;8.306;2024-01-11T05:41:53;59.53;;;29.55;;
10315;SDS011;5203;48.976;8.306;2024-01-11T05:45:17;53.05;;;26.92;;
10315;SDS011;5203;48.976;8.306;2024-01-11T05:47:43;53.50;;;30.15;;
10315;SDS011;5203;48.976;8.306;2024-01-11T05:50:09;56.83;;;33.92;;
10315;SDS011;5203;48.976;8.306;2024-01-11T05:52:36;50.88;;;28.95;;
10315;SDS011;5203;48.976;8.306;2024-01-11T05:55:02;70.70;;;30.73;;
10315;SDS011;5203;48.976;8.306;2024-01-11T05:57:29;46.50;;;27.35;;
10315;SDS011;5203;48.976;8.306;2024-01-11T05:59:55;51.17;;;25.20;;
10315;SDS011;5203;48.976;8.306;2024-01-11T06:02:21;51.63;;;26.30;;
10315;SDS011;5203;48.976;8.306;2024-01-11T06:04:49;51.90;;;31.67;;
10315;SDS011;5203;48.976;8.306;2024-01-11T06:07:18;66.72;;;31.40;;
10315;SDS011;5203;48.976;8.306;2024-01-11T06:09:44;57.95;;;30.27;;
10315;SDS011;5203;48.976;8.306;2024-01-11T06:12:13;65.55;;;29.25;;
10315;SDS011;5203;48.976;8.306;2024-01-11T06:14:39;63.40;;;30.17;;
10315;SDS011;5203;48.976;8.306;2024-01-11T06:17:05;60.80;;;31.27;;
10315;SDS011;5203;48.976;8.306;2024-01-11T06:19:31;60.45;;;28.95;;
10315;SDS011;5203;48.976;8.306;2024-01-11T06:22:00;58.13;;;31.08;;
10315;SDS011;5203;48.976;8.306;2024-01-11T06:26:52;61.17;;;26.52;;
10315;SDS011;5203;48.976;8.306;2024-01-11T06:29:18;51.00;;;20.92;;
10315;SDS011;5203;48.976;8.306;2024-01-11T06:31:47;52.78;;;25.45;;
10315;SDS011;5203;48.976;8.306;2024-01-11T06:34:13;46.78;;;27.90;;
10315;SDS011;5203;48.976;8.306;2024-01-11T06:36:39;54.00;;;28.90;;
10315;SDS011;5203;48.976;8.306;2024-01-11T06:39:06;67.63;;;31.10;;
10315;SDS011;5203;48.976;8.306;2024-01-11T06:41:32;56.97;;;30.77;;
10315;SDS011;5203;48.976;8.306;2024-01-11T06:43:58;55.63;;;27.83;;
10315;SDS011;5203;48.976;8.306;2024-01-11T06:46:24;56.63;;;27.65;;
10315;SDS011;5203;48.976;8.306;2024-01-11T06:48:50;61.65;;;29.15;;
10315;SDS011;5203;48.976;8.306;2024-01-11T06:51:16;59.53;;;30.10;;
10315;SDS011;5203;48.976;8.306;2024-01-11T06:53:45;51.80;;;26.25;;
10315;SDS011;5203;48.976;8.306;2024-01-11T06:56:14;58.83;;;27.58;;
10315;SDS011;5203;48.976;8.306;2024-01-11T06:58:42;55.97;;;26.90;;
10315;SDS011;5203;48.976;8.306;2024-01-11T07:01:10;55.25;;;26.67;;
10315;SDS011;5203;48.976;8.306;2024-01-11T07:03:36;50.65;;;28.63;;
10315;SDS011;5203;48.976;8.306;2024-01-11T07:06:02;48.08;;;27.08;;
10315;SDS011;5203;48.976;8.306;2024-01-11T07:08:29;61.85;;;28.42;;
10315;SDS011;5203;48.976;8.306;2024-01-11T07:10:58;51.42;;;26.08;;
10315;SDS011;5203;48.976;8.306;2024-01-11T07:13:25;58.35;;;30.45;;
10315;SDS011;5203;48.976;8.306;2024-01-11T07:15:51;45.42;;;24.02;;
10315;SDS011;5203;48.976;8.306;2024-01-11T07:18:17;52.03;;;28.73;;
10315;SDS011;5203;48.976;8.306;2024-01-11T07:20:43;68.65;;;46.35;;
10315;SDS011;5203;48.976;8.306;2024-01-11T07:23:09;58.55;;;29.42;;
10315;SDS011;5203;48.976;8.306;2024-01-11T07:25:35;64.38;;;29.80;;
10315;SDS011;5203;48.976;8.306;2024-01-11T07:28:01;53.25;;;27.05;;
10315;SDS011;5203;48.976;8.306;2024-01-11T07:30:27;52.60;;;28.73;;
10315;SDS011;5203;48.976;8.306;2024-01-11T07:32:53;56.53;;;22.83;;
10315;SDS011;5203;48.976;8.306;2024-01-11T07:35:19;59.88;;;31.52;;
10315;SDS011;5203;48.976;8.306;2024-01-11T07:37:45;54.35;;;28.45;;
10315;SDS011;5203;48.976;8.306;2024-01-11T07:40:13;57.40;;;29.00;;
10315;SDS011;5203;48.976;8.306;2024-01-11T07:45:06;54.78;;;25.17;;
10315;SDS011;5203;48.976;8.306;2024-01-11T07:47:32;63.58;;;30.88;;
10315;SDS011;5203;48.976;8.306;2024-01-11T07:49:59;57.30;;;28.15;;
10315;SDS011;5203;48.976;8.306;2024-01-11T07:52:26;67.50;;;30.63;;
10315;SDS011;5203;48.976;8.306;2024-01-11T07:54:52;59.38;;;30.38;;
10315;SDS011;5203;48.976;8.306;2024-01-11T07:57:19;70.28;;;31.15;;
10315;SDS011;5203;48.976;8.306;2024-01-11T07:59:44;64.00;;;32.25;;
10315;SDS011;5203;48.976;8.306;2024-01-11T08:02:10;68.78;;;32.70;;
10315;SDS011;5203;48.976;8.306;2024-01-11T08:04:35;63.53;;;30.67;;
10315;SDS011;5203;48.976;8.306;2024-01-11T08:07:03;73.38;;;34.47;;
10315;SDS011;5203;48.976;8.306;2024-01-11T08:09:30;74.10;;;33.08;;
10315;SDS011;5203;48.976;8.306;2024-01-11T08:11:56;69.50;;;32.78;;
10315;SDS011;5203;48.976;8.306;2024-01-11T08:14:22;63.35;;;31.98;;
10315;SDS011;5203;48.976;8.306;2024-01-11T08:16:47;67.65;;;29.50;;
10315;SDS011;5203;48.976;8.306;2024-01-11T08:19:13;58.70;;;25.55;;
10315;SDS011;5203;48.976;8.306;2024-01-11T08:21:44;73.30;;;35.38;;
10315;SDS011;5203;48.976;8.306;2024-01-11T08:24:10;67.65;;;28.75;;
10315;SDS011;5203;48.976;8.306;2024-01-11T08:26:36;58.85;;;31.73;;
10315;SDS011;5203;48.976;8.306;2024-01-11T08:29:02;68.35;;;31.58;;
10315;SDS011;5203;48.976;8.306;2024-01-11T08:31:29;61.47;;;26.95;;
10315;SDS011;5203;48.976;8.306;2024-01-11T08:33:55;66.50;;;31.65;;
10315;SDS011;5203;48.976;8.306;2024-01-11T08:36:21;61.70;;;31.83;;
10315;SDS011;5203;48.976;8.306;2024-01-11T08:38:47;63.53;;;32.67;;
10315;SDS011;5203;48.976;8.306;2024-01-11T08:41:14;64.88;;;31.35;;
10315;SDS011;5203;48.976;8.306;2024-01-11T08:43:43;67.20;;;33.78;;
10315;SDS011;5203;48.976;8.306;2024-01-11T08:46:09;64.53;;;32.72;;
10315;SDS011;5203;48.976;8.306;2024-01-11T08:48:37;59.35;;;33.60;;
10315;SDS011;5203;48.976;8.306;2024-01-11T08:51:03;64.53;;;32.28;;
10315;SDS011;5203;48.976;8.306;2024-01-11T08:53:29;63.40;;;30.08;;
10315;SDS011;5203;48.976;8.306;2024-01-11T08:55:55;62.58;;;32.20;;
10315;SDS011;5203;48.976;8.306;2024-01-11T08:58:21;71.82;;;32.10;;
10315;SDS011;5203;48.976;8.306;2024-01-11T09:00:47;62.92;;;30.60;;
10315;SDS011;5203;48.976;8.306;2024-01-11T09:03:13;47.25;;;27.13;;
10315;SDS011;5203;48.976;8.306;2024-01-11T09:05:40;63.05;;;29.30;;
10315;SDS011;5203;48.976;8.306;2024-01-11T09:08:06;59.90;;;31.73;;
10315;SDS011;5203;48.976;8.306;2024-01-11T09:10:32;56.22;;;30.02;;
10315;SDS011;5203;48.976;8.306;2024-01-11T09:12:58;61.97;;;31.73;;
10315;SDS011;5203;48.976;8.306;2024-01-11T09:15:24;60.95;;;30.90;;
10315;SDS011;5203;48.976;8.306;2024-01-11T09:17:50;60.13;;;30.77;;
10315;SDS011;5203;48.976;8.306;2024-01-11T09:20:15;58.65;;;31.65;;
10315;SDS011;5203;48.976;8.306;2024-01-11T09:22:41;64.07;;;29.00;;
10315;SDS011;5203;48.976;8.306;2024-01-11T09:25:07;53.28;;;29.73;;
10315;SDS011;5203;48.976;8.306;2024-01-11T09:27:36;61.97;;;31.95;;
10315;SDS011;5203;48.976;8.306;2024-01-11T09:30:09;68.22;;;31.77;;
10315;SDS011;5203;48.976;8.306;2024-01-11T09:32:38;65.47;;;29.95;;
10315;SDS011;5203;48.976;8.306;2024-01-11T09:40:27;57.45;;;27.70;;
10315;SDS011;5203;48.976;8.306;2024-01-11T09:42:55;51.75;;;28.13;;
10315;SDS011;5203;48.976;8.306;2024-01-11T09:45:28;60.85;;;33.30;;
10315;SDS011;5203;48.976;8.306;2024-01-11T09:47:59;54.63;;;28.55;;
10315;SDS011;5203;48.976;8.306;2024-01-11T09:50:29;64.53;;;29.35;;
10315;SDS011;5203;48.976;8.306;2024-01-11T09:53:02;60.55;;;30.33;;
10315;SDS011;5203;48.976;8.306;2024-01-11T09:55:30;66.13;;;30.27;;
10315;SDS011;5203;48.976;8.306;2024-01-11T09:57:56;67.78;;;30.88;;
10315;SDS011;5203;48.976;8.306;2024-01-11T10:00:25;62.30;;;32.83;;
10315;SDS011;5203;48.976;8.306;2024-01-11T10:03:01;162.77;;;62.55;;
10315;SDS011;5203;48.976;8.306;2024-01-11T10:07:55;60.70;;;31.15;;
10315;SDS011;5203;48.976;8.306;2024-01-11T10:10:21;65.03;;;34.72;;
10315;SDS011;5203;48.976;8.306;2024-01-11T10:13:00;65.43;;;33.42;;
10315;SDS011;5203;48.976;8.306;2024-01-11T10:15:26;67.25;;;31.40;;
10315;SDS011;5203;48.976;8.306;2024-01-11T10:17:57;59.97;;;32.78;;
10315;SDS011;5203;48.976;8.306;2024-01-11T10:20:27;55.67;;;32.92;;
10315;SDS011;5203;48.976;8.306;2024-01-11T10:22:57;68.60;;;31.33;;
10315;SDS011;5203;48.976;8.306;2024-01-11T10:25:26;69.45;;;37.00;;
10315;SDS011;5203;48.976;8.306;2024-01-11T10:27:55;60.97;;;31.27;;
10315;SDS011;5203;48.976;8.306;2024-01-11T10:30:22;58.00;;;31.50;;
10315;SDS011;5203;48.976;8.306;2024-01-11T10:32:50;68.22;;;32.67;;
10315;SDS011;5203;48.976;8.306;2024-01-11T10:35:18;64.63;;;29.20;;
10315;SDS011;5203;48.976;8.306;2024-01-11T10:38:00;60.78;;;32.63;;
10315;SDS011;5203;48.976;8.306;2024-01-11T10:40:31;63.22;;;33.85;;
10315;SDS011;5203;48.976;8.306;2024-01-11T10:43:00;82.13;;;36.72;;
10315;SDS011;5203;48.976;8.306;2024-01-11T10:45:30;83.35;;;38.17;;
10315;SDS011;5203;48.976;8.306;2024-01-11T10:48:03;58.28;;;28.02;;
10315;SDS011;5203;48.976;8.306;2024-01-11T10:50:35;70.50;;;34.28;;
10315;SDS011;5203;48.976;8.306;2024-01-11T10:53:19;79.32;;;37.72;;
10315;SDS011;5203;48.976;8.306;2024-01-11T10:56:12;56.17;;;34.25;;
10315;SDS011;5203;48.976;8.306;2024-01-11T10:58:42;63.47;;;32.55;;
10315;SDS011;5203;48.976;8.306;2024-01-11T11:01:12;67.82;;;35.50;;
10315;SDS011;5203;48.976;8.306;2024-01-11T11:03:39;59.97;;;29.80;;
10315;SDS011;5203;48.976;8.306;2024-01-11T11:06:07;53.85;;;29.40;;
10315;SDS011;5203;48.976;8.306;2024-01-11T11:08:36;66.30;;;33.13;;
10315;SDS011;5203;48.976;8.306;2024-01-11T11:11:03;67.97;;;35.85;;
10315;SDS011;5203;48.976;8.306;2024-01-11T11:13:33;62.25;;;35.60;;
10315;SDS011;5203;48.976;8.306;2024-01-11T11:16:01;66.40;;;35.05;;
10315;SDS011;5203;48.976;8.306;2024-01-11T11:18:31;69.07;;;35.25;;
10315;SDS011;5203;48.976;8.306;2024-01-11T11:21:00;84.47;;;46.63;;
10315;SDS011;5203;48.976;8.306;2024-01-11T11:23:26;82.10;;;40.58;;
10315;SDS011;5203;48.976;8.306;2024-01-11T11:25:53;81.60;;;45.13;;
10315;SDS011;5203;48.976;8.306;2024-01-11T11:28:23;62.85;;;35.95;;
10315;SDS011;5203;48.976;8.306;2024-01-11T11:30:49;61.35;;;31.60;;
10315;SDS011;5203;48.976;8.306;2024-01-11T11:35:45;60.15;;;32.15;;
10315;SDS011;5203;48.976;8.306;2024-01-11T11:38:18;69.80;;;34.13;;
10315;SDS011;5203;48.976;8.306;2024-01-11T11:40:48;70.95;;;34.22;;
10315;SDS011;5203;48.976;8.306;2024-01-11T11:43:16;74.63;;;34.78;;
10315;SDS011;5203;48.976;8.306;2024-01-11T11:45:43;66.10;;;33.08;;
10315;SDS011;5203;48.976;8.306;2024-01-11T11:53:35;65.45;;;35.65;;
10315;SDS011;5203;48.976;8.306;2024-01-11T11:56:02;68.93;;;35.75;;
10315;SDS011;5203;48.976;8.306;2024-01-11T11:58:41;67.18;;;34.08;;
10315;SDS011;5203;48.976;8.306;2024-01-11T12:01:26;66.13;;;33.88;;
10315;SDS011;5203;48.976;8.306;2024-01-11T12:06:20;72.80;;;35.55;;
10315;SDS011;5203;48.976;8.306;2024-01-11T12:08:49;73.63;;;32.30;;
10315;SDS011;5203;48.976;8.306;2024-01-11T12:11:18;92.18;;;44.70;;
10315;SDS011;5203;48.976;8.306;2024-01-11T12:13:48;104.10;;;48.92;;
10315;SDS011;5203;48.976;8.306;2024-01-11T12:16:15;71.40;;;37.50;;
10315;SDS011;5203;48.976;8.306;2024-01-11T12:18:41;80.65;;;40.15;;
10315;SDS011;5203;48.976;8.306;2024-01-11T12:21:07;73.30;;;36.53;;
10315;SDS011;5203;48.976;8.306;2024-01-11T12:23:33;72.40;;;35.90;;
10315;SDS011;5203;48.976;8.306;2024-01-11T12:26:03;78.47;;;42.10;;
10315;SDS011;5203;48.976;8.306;2024-01-11T12:28:32;75.72;;;39.10;;
10315;SDS011;5203;48.976;8.306;2024-01-11T12:30:59;68.90;;;35.53;;
10315;SDS011;5203;48.976;8.306;2024-01-11T12:33:26;61.28;;;35.85;;
10315;SDS011;5203;48.976;8.306;2024-01-11T12:35:53;74.80;;;35.92;;
10315;SDS011;5203;48.976;8.306;2024-01-11T12:38:19;70.28;;;36.72;;
10315;SDS011;5203;48.976;8.306;2024-01-11T12:40:45;66.68;;;36.10;;
10315;SDS011;5203;48.976;8.306;2024-01-11T12:43:12;63.78;;;33.42;;
10315;SDS011;5203;48.976;8.306;2024-01-11T12:45:38;68.45;;;33.80;;
10315;SDS011;5203;48.976;8.306;2024-01-11T12:48:06;67.60;;;33.63;;
10315;SDS011;5203;48.976;8.306;2024-01-11T12:50:33;68.22;;;30.98;;
10315;SDS011;5203;48.976;8.306;2024-01-11T12:55:41;74.40;;;36.63;;
10315;SDS011;5203;48.976;8.306;2024-01-11T12:58:07;71.57;;;33.22;;
10315;SDS011;5203;48.976;8.306;2024-01-11T13:00:35;66.60;;;36.25;;
10315;SDS011;5203;48.976;8.306;2024-01-11T13:03:02;70.85;;;37.17;;
10315;SDS011;5203;48.976;8.306;2024-01-11T13:05:28;70.55;;;36.25;;
10315;SDS011;5203;48.976;8.306;2024-01-11T13:08:00;80.90;;;37.15;;
10315;SDS011;5203;48.976;8.306;2024-01-11T13:10:35;66.50;;;32.90;;
10315;SDS011;5203;48.976;8.306;2024-01-11T13:13:02;68.57;;;36.53;;
10315;SDS011;5203;48.976;8.306;2024-01-11T13:15:29;71.53;;;35.88;;
10315;SDS011;5203;48.976;8.306;2024-01-11T13:17:56;73.97;;;38.17;;
10315;SDS011;5203;48.976;8.306;2024-01-11T13:20:22;71.93;;;37.00;;
10315;SDS011;5203;48.976;8.306;2024-01-11T13:22:49;80.07;;;37.40;;
10315;SDS011;5203;48.976;8.306;2024-01-11T13:25:36;106.40;;;46.70;;
10315;SDS011;5203;48.976;8.306;2024-01-11T13:28:01;96.20;;;41.25;;
10315;SDS011;5203;48.976;8.306;2024-01-11T13:30:27;121.78;;;47.47;;
10315;SDS011;5203;48.976;8.306;2024-01-11T13:32:53;101.13;;;44.17;;
10315;SDS011;5203;48.976;8.306;2024-01-11T13:35:18;151.68;;;55.45;;
10315;SDS011;5203;48.976;8.306;2024-01-11T13:37:45;85.45;;;38.65;;
10315;SDS011;5203;48.976;8.306;2024-01-11T13:40:11;92.00;;;40.35;;
10315;SDS011;5203;48.976;8.306;2024-01-11T13:42:38;84.90;;;37.92;;
10315;SDS011;5203;48.976;8.306;2024-01-11T13:45:04;71.40;;;34.53;;
10315;SDS011;5203;48.976;8.306;2024-01-11T13:47:33;79.60;;;39.80;;
10315;SDS011;5203;48.976;8.306;2024-01-11T13:49:59;71.03;;;35.33;;
10315;SDS011;5203;48.976;8.306;2024-01-11T13:52:25;72.63;;;35.38;;
10315;SDS011;5203;48.976;8.306;2024-01-11T13:54:51;78.13;;;35.83;;
10315;SDS011;5203;48.976;8.306;2024-01-11T13:57:16;69.15;;;35.55;;
10315;SDS011;5203;48.976;8.306;2024-01-11T13:59:42;74.00;;;37.15;;
10315;SDS011;5203;48.976;8.306;2024-01-11T14:02:08;79.78;;;37.15;;
10315;SDS011;5203;48.976;8.306;2024-01-11T14:04:34;74.50;;;36.65;;
10315;SDS011;5203;48.976;8.306;2024-01-11T14:07:00;73.20;;;37.47;;
10315;SDS011;5203;48.976;8.306;2024-01-11T14:09:26;75.50;;;39.28;;
10315;SDS011;5203;48.976;8.306;2024-01-11T14:11:52;82.60;;;38.20;;
10315;SDS011;5203;48.976;8.306;2024-01-11T14:14:18;79.57;;;36.78;;
10315;SDS011;5203;48.976;8.306;2024-01-11T14:16:45;72.35;;;35.80;;
10315;SDS011;5203;48.976;8.306;2024-01-11T14:19:11;76.57;;;37.25;;
10315;SDS011;5203;48.976;8.306;2024-01-11T14:21:37;80.13;;;39.53;;
10315;SDS011;5203;48.976;8.306;2024-01-11T14:24:03;77.28;;;35.17;;
10315;SDS011;5203;48.976;8.306;2024-01-11T14:26:30;81.72;;;35.05;;
10315;SDS011;5203;48.976;8.306;2024-01-11T14:28:56;71.53;;;36.75;;
10315;SDS011;5203;48.976;8.306;2024-01-11T14:31:23;75.35;;;35.53;;
10315;SDS011;5203;48.976;8.306;2024-01-11T14:33:48;78.97;;;38.20;;
10315;SDS011;5203;48.976;8.306;2024-01-11T14:36:15;77.40;;;38.53;;
10315;SDS011;5203;48.976;8.306;2024-01-11T14:38:41;78.85;;;39.00;;
10315;SDS011;5203;48.976;8.306;2024-01-11T14:41:07;85.28;;;39.78;;
10315;SDS011;5203;48.976;8.306;2024-01-11T14:43:34;77.20;;;34.25;;
10315;SDS011;5203;48.976;8.306;2024-01-11T14:46:00;71.55;;;37.60;;
10315;SDS011;5203;48.976;8.306;2024-01-11T14:48:26;84.85;;;41.90;;
10315;SDS011;5203;48.976;8.306;2024-01-11T14:50:55;83.15;;;38.35;;
10315;SDS011;5203;48.976;8.306;2024-01-11T14:53:22;75.15;;;37.53;;
10315;SDS011;5203;48.976;8.306;2024-01-11T14:55:47;74.95;;;33.95;;
10315;SDS011;5203;48.976;8.306;2024-01-11T14:58:14;71.72;;;34.10;;
10315;SDS011;5203;48.976;8.306;2024-01-11T15:00:41;87.03;;;36.97;;
10315;SDS011;5203;48.976;8.306;2024-01-11T15:03:06;72.82;;;36.35;;
10315;SDS011;5203;48.976;8.306;2024-01-11T15:05:32;78.18;;;38.33;;
10315;SDS011;5203;48.976;8.306;2024-01-11T15:07:58;76.75;;;37.58;;
10315;SDS011;5203;48.976;8.306;2024-01-11T15:10:24;81.47;;;38.58;;